createdAt,value
2022-10-13T00:13:25.428Z,88.1
2022-10-13T00:33:25.458Z,88.9
2022-10-13T00:53:25.464Z,89.1
2022-10-13T01:13:25.400Z,89.4
2022-10-13T01:33:25.413Z,89.1
2022-10-13T01:53:25.428Z,89.3
2022-10-13T02:13:25.348Z,89.4
2022-10-13T02:33:25.367Z,89.5
2022-10-13T02:53:25.388Z,90.1
2022-10-13T03:13:25.405Z,89.8
2022-10-13T03:33:25.337Z,90.0
2022-10-13T03:53:25.343Z,90.2
2022-10-13T04:13:25.370Z,90.5
2022-10-13T04:33:25.291Z,90.1
2022-10-13T04:53:25.314Z,89.8
2022-10-13T05:13:25.324Z,89.8
2022-10-13T05:33:25.245Z,89.9
2022-10-13T05:53:25.262Z,89.6
2022-10-13T06:13:25.286Z,89.3
2022-10-13T06:33:25.199Z,89.2
2022-10-13T06:53:25.279Z,89.4
2022-10-13T07:13:25.237Z,89.1
2022-10-13T07:33:25.159Z,88.5
2022-10-13T07:53:25.179Z,88.4
2022-10-13T08:13:25.199Z,88.9
2022-10-13T08:33:25.127Z,87.8
2022-10-13T08:53:25.142Z,86.9
2022-10-13T09:13:25.153Z,86.4
2022-10-13T09:33:25.072Z,85.6
2022-10-13T09:53:25.095Z,80.0
2022-10-13T10:13:25.011Z,77.3
2022-10-13T10:33:25.035Z,76.2
2022-10-13T10:53:24.958Z,75.2
2022-10-13T11:13:24.992Z,74.9
2022-10-13T11:33:24.992Z,75.9
2022-10-13T11:53:24.918Z,74.0
2022-10-13T12:13:24.946Z,74.5
2022-10-13T12:33:24.915Z,75.4
2022-10-13T12:53:24.893Z,78.4
2022-10-13T13:13:24.816Z,71.2
2022-10-13T13:33:24.846Z,72.0
2022-10-13T13:53:24.756Z,74.3
2022-10-13T14:13:24.790Z,74.6
2022-10-13T14:33:24.798Z,76.8
2022-10-13T14:53:24.783Z,76.8
2022-10-13T15:13:24.670Z,76.7
2022-10-13T15:33:24.691Z,79.5
2022-10-13T15:53:24.656Z,80.9
2022-10-13T16:13:24.655Z,82.4
2022-10-13T16:33:24.661Z,83.7
2022-10-13T16:53:24.582Z,84.1
2022-10-13T17:13:24.601Z,85.1
2022-10-13T17:33:24.534Z,85.4
2022-10-13T17:53:24.545Z,86.2
2022-10-13T18:13:24.568Z,86.6
2022-10-13T18:33:24.483Z,87.0
2022-10-13T18:53:24.531Z,87.8
2022-10-13T19:13:24.431Z,88.5
2022-10-13T19:33:24.450Z,88.3
2022-10-13T19:53:24.465Z,89.0
2022-10-13T20:13:24.387Z,89.1
2022-10-13T20:33:24.416Z,89.7
2022-10-13T20:53:24.436Z,89.3
2022-10-13T21:13:24.355Z,89.5
2022-10-13T21:33:24.378Z,89.9
2022-10-13T21:53:24.297Z,89.5
2022-10-13T22:13:24.318Z,90.2
2022-10-13T22:33:24.337Z,90.7
2022-10-13T22:53:24.260Z,91.7
2022-10-13T23:13:24.284Z,92.1
2022-10-13T23:33:24.301Z,92.5
2022-10-13T23:53:24.228Z,92.7
